Time;durP1;ratioP1;P1;durP2;ratioP2;P2;SDS_P1;SDS_P2;PMS_P1;PMS_P2;Temp;Humidity;BMP_temperature;BMP_pressure;BME280_temperature;BME280_humidity;BME280_pressure;Samples;Min_cycle;Max_cycle;Signal;HPM_P1;HPM_P2
2023/04/14 00:01:28;;;;;;;3.75;1.98;;;;;;;8.33;72.89;99101.63;10492102;28;20049;-70
2023/04/14 00:06:32;;;;;;;6.63;2.05;;;;;;;8.29;73.28;99095.66;10473909;28;20454;-70
2023/04/14 00:11:33;;;;;;;5.28;2.20;;;;;;;8.16;74.73;99088.31;10472960;28;20524;-71
2023/04/14 00:16:35;;;;;;;3.35;2.10;;;;;;;8.15;75.00;99089.22;10490370;28;20052;-70
2023/04/14 00:21:37;;;;;;;3.97;2.25;;;;;;;8.16;75.46;99083.94;10490809;28;20040;-70
2023/04/14 00:26:39;;;;;;;3.75;1.95;;;;;;;8.24;75.23;99088.88;10491343;28;20070;-70
2023/04/14 00:31:40;;;;;;;4.68;2.00;;;;;;;8.40;73.76;99084.78;10491451;28;20358;-71
2023/04/14 00:36:42;;;;;;;5.53;2.13;;;;;;;8.31;74.17;99090.34;10472293;28;20140;-69
2023/04/14 00:41:44;;;;;;;5.28;1.85;;;;;;;8.23;74.83;99082.78;10470169;28;20052;-71
2023/04/14 00:46:46;;;;;;;3.70;1.77;;;;;;;8.32;73.44;99085.06;10490787;28;20040;-72
2023/04/14 00:51:49;;;;;;;4.07;1.75;;;;;;;8.33;73.70;99078.91;10472518;28;20143;-71
2023/04/14 00:56:52;;;;;;;5.20;1.85;;;;;;;8.19;74.90;99080.31;10471783;28;20420;-70
2023/04/14 01:01:55;;;;;;;5.70;1.90;;;;;;;8.14;74.78;99087.50;10471832;28;20406;-71
2023/04/14 01:06:57;;;;;;;6.20;2.38;;;;;;;8.06;75.02;99096.50;10471800;28;20448;-71
2023/04/14 01:12:20;;;;;;;7.50;2.88;;;;;;;8.20;74.00;99098.63;10490220;28;20044;-71
2023/04/14 01:17:31;;;;;;;5.90;2.47;;;;;;;8.13;74.53;99096.28;10472233;28;20054;-71
2023/04/14 01:22:37;;;;;;;5.65;2.15;;;;;;;8.16;74.37;99093.56;10490454;28;20115;-71
2023/04/14 01:27:47;;;;;;;6.13;1.92;;;;;;;8.18;74.40;99107.41;10490008;28;20064;-70
2023/04/14 01:32:53;;;;;;;3.72;1.77;;;;;;;8.12;74.79;99103.28;10472047;28;20071;-70
2023/04/14 01:38:05;;;;;;;5.05;1.95;;;;;;;8.07;75.59;99094.75;10470910;28;20570;-70
2023/04/14 01:43:11;;;;;;;5.35;2.00;;;;;;;8.00;75.94;99108.94;10470755;28;20190;-70
2023/04/14 01:48:16;;;;;;;5.32;2.10;;;;;;;7.98;75.97;99114.25;10471143;28;20382;-70
2023/04/14 01:53:21;;;;;;;3.80;2.30;;;;;;;8.25;76.76;99122.84;10470381;28;20128;-70
2023/04/14 01:58:25;;;;;;;4.10;2.65;;;;;;;8.05;78.78;99107.88;10453678;28;20174;-70
2023/04/14 02:03:28;;;;;;;3.15;2.20;;;;;;;8.01;79.73;99097.56;10470050;28;20037;-70
2023/04/14 02:08:31;;;;;;;3.70;2.25;;;;;;;7.90;80.51;99095.34;10488413;28;20207;-71
2023/04/14 02:13:38;;;;;;;4.22;2.55;;;;;;;7.94;80.92;99090.84;10470639;28;20049;-70
2023/04/14 02:18:40;;;;;;;2.83;2.47;;;;;;;7.85;81.54;99086.81;10490953;28;20119;-71
2023/04/14 02:23:43;;;;;;;4.47;2.92;;;;;;;7.65;83.27;99082.25;10495331;28;20036;-70
2023/04/14 02:28:50;;;;;;;4.63;2.60;;;;;;;7.63;83.51;99076.25;10477698;28;20089;-70
2023/04/14 02:33:54;;;;;;;3.55;2.92;;;;;;;7.67;84.11;99075.25;10495659;28;20443;-71
2023/04/14 02:39:05;;;;;;;3.97;3.40;;;;;;;7.61;84.96;99085.91;10461183;28;20151;-70
2023/04/14 02:44:27;;;;;;;6.07;4.05;;;;;;;7.95;83.76;99080.31;10476664;28;20063;-70
2023/04/14 02:49:51;;;;;;;3.97;3.17;;;;;;;7.83;84.14;99086.88;10495962;28;20117;-70
2023/04/14 02:54:58;;;;;;;6.10;3.67;;;;;;;7.61;85.40;99085.91;10475639;28;20094;-69
2023/04/14 03:00:02;;;;;;;5.03;3.40;;;;;;;7.56;85.91;99095.66;10474673;28;20072;-70
2023/04/14 03:05:09;;;;;;;4.88;3.53;;;;;;;7.59;87.17;99093.81;10473715;28;20040;-72
2023/04/14 03:10:24;;;;;;;5.18;3.78;;;;;;;7.81;88.32;99095.69;10474493;28;20044;-71
2023/04/14 03:15:27;;;;;;;4.82;3.63;;;;;;;7.47;90.18;99095.97;10456503;28;20045;-71
2023/04/14 03:20:31;;;;;;;5.18;3.67;;;;;;;7.24;93.42;99097.59;10473324;28;20044;-71
2023/04/14 03:25:39;;;;;;;4.57;3.77;;;;;;;7.24;94.27;99094.16;10472493;28;20152;-71
2023/04/14 03:30:50;;;;;;;4.88;4.20;;;;;;;7.20;94.94;99089.94;10471311;28;20431;-70
2023/04/14 03:35:56;;;;;;;5.00;3.75;;;;;;;7.66;94.56;99091.84;10472950;28;20052;-69
2023/04/14 03:41:03;;;;;;;3.50;3.17;;;;;;;7.58;96.04;99080.78;10471767;28;20044;-69
2023/04/14 03:46:04;;;;;;;4.82;3.83;;;;;;;7.26;98.28;99097.56;10471713;28;20048;-69
2023/04/14 03:51:12;;;;;;;5.18;3.78;;;;;;;7.00;100.00;99095.81;10471687;28;20450;-69
2023/04/14 03:56:16;;;;;;;5.43;4.60;;;;;;;6.93;100.00;99084.69;10417712;28;1106225;-69
2023/04/14 04:01:20;;;;;;;8.45;4.40;;;;;;;7.16;100.00;99062.19;10472809;28;20064;-69
2023/04/14 04:06:22;;;;;;;6.50;5.35;;;;;;;7.14;100.00;99057.00;10472678;28;20131;-69
2023/04/14 04:11:26;;;;;;;6.57;4.43;;;;;;;7.12;100.00;99045.75;10472995;28;20044;-69
2023/04/14 04:16:29;;;;;;;6.00;4.68;;;;;;;7.00;100.00;99049.63;10491209;28;20065;-70
2023/04/14 04:21:34;;;;;;;5.63;5.05;;;;;;;7.02;100.00;99049.56;10471887;28;20044;-70
2023/04/14 04:26:36;;;;;;;6.30;5.05;;;;;;;6.94;100.00;99047.19;10490888;28;20094;-70
2023/04/14 04:31:39;;;;;;;10.63;5.70;;;;;;;6.85;100.00;99071.00;10491884;28;20036;-70
2023/04/14 04:36:42;;;;;;;6.15;4.80;;;;;;;6.89;100.00;99071.78;10473607;28;20048;-71
2023/04/14 04:41:44;;;;;;;15.80;6.25;;;;;;;6.91;100.00;99078.69;10490529;28;20038;-69
2023/04/14 04:46:54;;;;;;;6.55;5.95;;;;;;;7.00;100.00;99088.81;10472264;28;20045;-71
2023/04/14 04:51:59;;;;;;;7.35;6.60;;;;;;;7.02;100.00;99078.31;10473146;28;20045;-70
2023/04/14 04:57:02;;;;;;;6.68;6.05;;;;;;;7.02;100.00;99100.06;10489327;22;20045;-75
2023/04/14 05:02:04;;;;;;;7.85;7.15;;;;;;;6.87;100.00;99107.56;10493311;28;20107;-76
2023/04/14 05:07:06;;;;;;;7.05;6.30;;;;;;;6.78;100.00;99112.16;10491464;28;20135;-76
2023/04/14 05:12:08;;;;;;;7.78;7.07;;;;;;;6.70;100.00;99114.16;10491547;28;20036;-76
2023/04/14 05:17:10;;;;;;;7.70;7.00;;;;;;;6.72;100.00;99109.72;10508324;28;20454;-76
2023/04/14 05:22:11;;;;;;;9.23;8.15;;;;;;;6.90;100.00;99113.53;10492558;28;20050;-75
2023/04/14 05:27:13;;;;;;;8.27;7.28;;;;;;;7.05;100.00;99099.13;10493497;28;20052;-76
2023/04/14 05:32:15;;;;;;;8.98;7.00;;;;;;;7.15;100.00;99104.91;10490907;28;20399;-74
2023/04/14 05:37:18;;;;;;;7.65;7.03;;;;;;;6.97;100.00;99112.44;10491239;28;20036;-76
2023/04/14 05:42:20;;;;;;;8.90;7.80;;;;;;;6.91;100.00;99114.41;10492388;28;20105;-75
2023/04/14 05:47:22;;;;;;;8.30;7.45;;;;;;;7.02;100.00;99127.97;10490259;28;20064;-75
2023/04/14 05:52:24;;;;;;;11.75;7.72;;;;;;;7.12;100.00;99107.59;10507982;28;20446;-76
2023/04/14 05:57:26;;;;;;;8.07;7.32;;;;;;;7.30;100.00;99104.38;10499807;28;20468;-75
2023/04/14 06:02:28;;;;;;;8.65;7.68;;;;;;;7.43;100.00;99115.28;10497899;28;20051;-74
2023/04/14 06:07:30;;;;;;;9.30;7.65;;;;;;;7.16;100.00;99114.44;10481765;28;20056;-76
2023/04/14 06:12:31;;;;;;;11.27;9.52;;;;;;;7.11;100.00;99105.91;10500908;28;20412;-75
2023/04/14 06:17:34;;;;;;;11.35;9.95;;;;;;;7.13;100.00;99114.53;10500093;28;20059;-74
2023/04/14 06:22:36;;;;;;;10.60;9.57;;;;;;;7.30;100.00;99101.78;10499437;28;20048;-75
2023/04/14 06:27:37;;;;;;;9.70;8.82;;;;;;;7.19;100.00;99106.53;10498033;28;20098;-76
2023/04/14 06:32:39;;;;;;;10.25;9.50;;;;;;;7.08;100.00;99105.13;10497912;28;20048;-76
2023/04/14 06:37:41;;;;;;;9.80;8.93;;;;;;;6.92;100.00;99095.19;10499902;28;20148;-75
2023/04/14 06:42:43;;;;;;;9.40;8.50;;;;;;;6.93;100.00;99081.22;10499185;28;20052;-76
2023/04/14 06:47:44;;;;;;;9.80;8.75;;;;;;;6.85;100.00;99075.38;10531727;28;20132;-76
2023/04/14 06:52:46;;;;;;;9.13;8.20;;;;;;;7.05;100.00;99073.84;10539932;28;20044;-75
2023/04/14 06:57:48;;;;;;;9.18;8.32;;;;;;;7.03;100.00;99069.56;10521436;28;20036;-75
2023/04/14 07:02:50;;;;;;;8.15;7.45;;;;;;;6.97;100.00;99069.78;10525817;28;20068;-75
2023/04/14 07:07:51;;;;;;;7.72;7.13;;;;;;;7.02;100.00;99068.72;10495604;28;20064;-76
2023/04/14 07:12:53;;;;;;;7.43;6.60;;;;;;;7.08;100.00;99065.03;10497388;28;20504;-75
2023/04/14 07:17:55;;;;;;;6.57;5.88;;;;;;;7.36;100.00;99067.59;10496337;28;20048;-75
2023/04/14 07:23:00;;;;;;;6.65;5.97;;;;;;;7.27;100.00;99070.53;10497440;28;20036;-75
2023/04/14 07:28:03;;;;;;;6.53;5.80;;;;;;;7.30;100.00;99065.19;10496458;28;20127;-74
2023/04/14 07:33:05;;;;;;;7.72;5.82;;;;;;;7.43;100.00;99070.84;10497130;28;20098;-74
2023/04/14 07:38:07;;;;;;;5.35;4.95;;;;;;;7.45;100.00;99085.59;10496513;28;20147;-74
2023/04/14 07:43:08;;;;;;;6.20;5.30;;;;;;;7.44;100.00;99081.28;10496261;28;20036;-75
2023/04/14 07:48:10;;;;;;;6.50;4.72;;;;;;;7.50;100.00;99086.28;10510828;28;20420;-75
2023/04/14 07:53:12;;;;;;;6.47;4.30;;;;;;;7.52;100.00;99094.91;10495340;28;20086;-74
2023/04/14 07:58:15;;;;;;;6.50;4.35;;;;;;;7.58;100.00;99099.09;10519128;28;20150;-75
2023/04/14 08:03:16;;;;;;;4.55;4.15;;;;;;;7.53;100.00;99098.41;10536506;28;20076;-74
2023/04/14 08:08:18;;;;;;;5.05;4.60;;;;;;;7.49;100.00;99081.97;10533592;28;20358;-74
2023/04/14 08:13:20;;;;;;;5.80;4.75;;;;;;;7.48;100.00;99077.66;10536312;28;20078;-75
2023/04/14 08:18:22;;;;;;;7.00;6.40;;;;;;;7.20;100.00;99079.47;10510317;28;20071;-74
2023/04/14 08:23:24;;;;;;;7.53;6.70;;;;;;;7.23;100.00;99077.63;10493884;28;20096;-75
2023/04/14 08:28:27;;;;;;;9.73;8.82;;;;;;;7.32;100.00;99073.84;10494871;28;20059;-75
2023/04/14 08:33:29;;;;;;;9.02;8.23;;;;;;;7.47;100.00;99075.91;10494589;28;20056;-75
2023/04/14 08:38:30;;;;;;;9.02;8.32;;;;;;;7.62;100.00;99073.69;10494338;28;20053;-75
2023/04/14 08:43:32;;;;;;;9.80;9.07;;;;;;;7.70;100.00;99075.13;10476455;28;20441;-74
2023/04/14 08:48:35;;;;;;;8.93;8.25;;;;;;;7.80;100.00;99083.50;10494059;28;20048;-74
2023/04/14 08:53:42;;;;;;;9.90;9.10;;;;;;;7.49;100.00;99071.50;10476617;28;20047;-75
2023/04/14 08:58:46;;;;;;;8.00;7.30;;;;;;;7.46;100.00;99071.59;10494895;28;20401;-76
2023/04/14 09:03:49;;;;;;;7.90;7.30;;;;;;;7.29;100.00;99068.69;10493905;28;20086;-75
2023/04/14 09:08:51;;;;;;;8.35;7.13;;;;;;;7.36;100.00;99056.28;10493105;28;20095;-74
2023/04/14 09:13:55;;;;;;;6.00;5.38;;;;;;;7.38;100.00;99055.31;10492779;28;20046;-75
2023/04/14 09:18:57;;;;;;;7.70;5.72;;;;;;;7.32;100.00;99052.91;10493482;28;20048;-75
2023/04/14 09:24:09;;;;;;;5.03;4.40;;;;;;;7.49;100.00;99050.59;10493358;28;20032;-74
2023/04/14 09:29:12;;;;;;;5.63;5.13;;;;;;;7.59;100.00;99040.66;10493224;28;20128;-75
2023/04/14 09:34:19;;;;;;;4.70;4.35;;;;;;;7.67;100.00;99054.31;10493459;28;20048;-75
2023/04/14 09:39:20;;;;;;;5.37;4.67;;;;;;;7.50;100.00;99057.50;10475207;28;20125;-74
2023/04/14 09:44:22;;;;;;;5.47;4.97;;;;;;;7.46;100.00;99060.28;10493287;28;20036;-75
2023/04/14 09:49:25;;;;;;;4.65;3.85;;;;;;;7.38;100.00;99070.16;10493708;28;20084;-74
2023/04/14 09:54:26;;;;;;;5.18;3.60;;;;;;;7.37;100.00;99050.16;10493268;28;20052;-74
2023/04/14 09:59:37;;;;;;;5.97;4.53;;;;;;;7.18;100.00;99068.22;10474529;28;20062;-75
2023/04/14 10:04:39;;;;;;;4.50;4.10;;;;;;;7.27;100.00;99070.53;10493142;28;20378;-75
2023/04/14 10:09:41;;;;;;;5.30;4.28;;;;;;;7.17;100.00;99051.69;10492396;28;20052;-73
2023/04/14 10:14:43;;;;;;;3.65;3.10;;;;;;;7.23;100.00;99054.09;10474647;28;20048;-73
2023/04/14 10:19:45;;;;;;;4.45;3.85;;;;;;;7.27;100.00;99040.00;10492566;28;20041;-74
2023/04/14 10:24:49;;;;;;;4.70;3.55;;;;;;;7.43;100.00;99039.47;10492353;28;20101;-75
2023/04/14 10:29:52;;;;;;;5.03;3.67;;;;;;;7.37;100.00;99037.06;10493104;28;20048;-74
2023/04/14 10:35:02;;;;;;;4.00;3.70;;;;;;;7.48;100.00;99037.53;10474506;28;20470;-73
2023/04/14 10:40:05;;;;;;;4.22;3.70;;;;;;;7.31;100.00;99044.22;10477482;28;20082;-73
2023/04/14 10:45:09;;;;;;;5.00;3.05;;;;;;;7.47;100.00;99036.69;10500989;28;20063;-74
2023/04/14 10:50:13;;;;;;;3.92;3.33;;;;;;;7.55;100.00;99039.03;10483666;28;20060;-74
2023/04/14 10:55:15;;;;;;;2.72;2.47;;;;;;;7.32;100.00;99037.25;10500146;28;20064;-74
2023/04/14 11:00:22;;;;;;;2.08;1.88;;;;;;;7.26;100.00;99033.09;10499158;28;20044;-73
2023/04/14 11:05:23;;;;;;;;;;;;;;;7.33;100.00;99033.72;10498942;28;20048;-73
2023/04/14 11:10:31;;;;;;;2.45;2.25;;;;;;;7.34;100.00;99022.34;10479921;28;19920;-73
2023/04/14 11:15:49;;;;;;;2.72;2.38;;;;;;;7.32;100.00;99017.19;10478776;28;20037;-73
2023/04/14 11:20:51;;;;;;;3.05;2.20;;;;;;;7.22;100.00;99007.09;10479908;28;20044;-74
2023/04/14 11:25:55;;;;;;;3.08;2.25;;;;;;;7.42;100.00;99002.00;10496805;28;20049;-73
2023/04/14 11:30:58;;;;;;;2.30;2.08;;;;;;;7.34;100.00;99004.88;10497175;28;20045;-73
2023/04/14 11:36:01;;;;;;;2.42;2.20;;;;;;;7.37;100.00;99005.72;10497060;28;20434;-73
2023/04/14 11:41:03;;;;;;;2.28;2.08;;;;;;;7.23;100.00;98998.34;10496086;28;20110;-74
2023/04/14 11:46:07;;;;;;;2.55;2.33;;;;;;;7.30;100.00;98991.97;10495954;28;20124;-73
2023/04/14 11:51:09;;;;;;;3.33;3.13;;;;;;;7.29;100.00;98995.50;10495262;28;20409;-73
2023/04/14 11:56:11;;;;;;;3.58;3.28;;;;;;;7.32;100.00;98983.19;10477518;28;20482;-73
2023/04/14 12:01:14;;;;;;;3.10;2.80;;;;;;;7.57;100.00;98972.72;10494974;28;20041;-73
2023/04/14 12:06:17;;;;;;;3.42;2.95;;;;;;;7.59;100.00;98970.88;10495651;28;20036;-73
2023/04/14 12:11:18;;;;;;;3.72;3.42;;;;;;;7.46;100.00;98960.94;10495347;28;20056;-73
2023/04/14 12:16:22;;;;;;;3.88;3.55;;;;;;;7.49;100.00;98969.53;10494391;28;20047;-73
2023/04/14 12:21:24;;;;;;;4.03;3.72;;;;;;;7.42;100.00;98975.03;10493984;28;20523;-74
2023/04/14 12:26:27;;;;;;;4.85;4.45;;;;;;;7.48;100.00;98959.97;10493737;28;20053;-73
2023/04/14 12:31:29;;;;;;;7.10;5.00;;;;;;;7.59;100.00;98956.97;10493782;28;20058;-73
2023/04/14 12:36:31;;;;;;;4.95;4.60;;;;;;;7.56;100.00;98950.06;10493400;28;20049;-73
2023/04/14 12:41:51;;;;;;;5.53;4.57;;;;;;;7.46;100.00;98940.00;10474927;28;20044;-73
2023/04/14 12:46:53;;;;;;;4.65;4.25;;;;;;;7.49;100.00;98938.16;10475575;28;20504;-74
2023/04/14 12:51:56;;;;;;;4.57;4.00;;;;;;;7.57;100.00;98937.88;10493844;28;20086;-73
2023/04/14 12:56:57;;;;;;;5.13;4.72;;;;;;;7.45;100.00;98941.78;10475051;28;20143;-73
2023/04/14 13:01:59;;;;;;;5.20;4.85;;;;;;;7.42;100.00;98938.41;10492200;28;20085;-74
2023/04/14 13:07:01;;;;;;;5.43;5.03;;;;;;;7.31;100.00;98930.97;10475117;28;20508;-73
2023/04/14 13:12:03;;;;;;;5.07;4.57;;;;;;;7.39;100.00;98933.28;10492531;28;20059;-74
2023/04/14 13:17:04;;;;;;;4.80;4.50;;;;;;;7.33;100.00;98927.38;10475324;28;20075;-74
2023/04/14 13:22:06;;;;;;;4.97;4.57;;;;;;;7.36;100.00;98928.19;10490841;28;20040;-74
2023/04/14 13:27:08;;;;;;;4.65;3.70;;;;;;;7.50;100.00;98924.16;10526318;28;20037;-73
2023/04/14 13:32:11;;;;;;;4.55;4.25;;;;;;;7.71;100.00;98919.03;10534509;28;20036;-74
2023/04/14 13:37:13;;;;;;;4.70;4.40;;;;;;;7.61;100.00;98913.28;10538436;28;20146;-72
2023/04/14 13:42:17;;;;;;;4.80;4.50;;;;;;;7.75;100.00;98916.25;10518418;28;20096;-73
2023/04/14 13:47:19;;;;;;;4.63;4.32;;;;;;;7.72;100.00;98916.34;10534781;28;20493;-73
2023/04/14 13:52:21;;;;;;;4.25;3.85;;;;;;;7.80;100.00;98911.69;10534104;28;20036;-73
2023/04/14 13:57:23;;;;;;;4.53;4.22;;;;;;;7.82;100.00;98909.00;10533729;28;20044;-73
2023/04/14 14:02:25;;;;;;;4.05;3.75;;;;;;;7.85;100.00;98906.28;10535532;28;20040;-73
2023/04/14 14:07:27;;;;;;;4.15;3.85;;;;;;;7.89;100.00;98912.25;10532985;28;20051;-72
2023/04/14 14:12:31;;;;;;;4.55;4.25;;;;;;;7.86;100.00;98918.44;10532037;28;20087;-73
2023/04/14 14:17:33;;;;;;;4.47;4.18;;;;;;;7.70;100.00;98914.69;10539698;28;20109;-74
2023/04/14 14:22:35;;;;;;;5.40;5.00;;;;;;;7.77;100.00;98918.78;10504224;28;20384;-73
2023/04/14 14:27:37;;;;;;;5.35;4.95;;;;;;;7.88;100.00;98924.50;10540330;28;20051;-73
2023/04/14 14:32:38;;;;;;;4.63;4.32;;;;;;;7.66;100.00;98927.06;10504409;28;20557;-73
2023/04/14 14:37:43;;;;;;;4.72;4.38;;;;;;;7.67;100.00;98922.69;10510458;28;20480;-73
2023/04/14 14:42:45;;;;;;;6.00;5.55;;;;;;;7.74;100.00;98922.38;10535601;28;20127;-73
2023/04/14 14:47:46;;;;;;;5.88;5.47;;;;;;;7.74;100.00;98924.97;10540737;28;20044;-73
2023/04/14 14:52:48;;;;;;;6.68;6.18;;;;;;;7.66;100.00;98927.06;10521542;28;20062;-74
2023/04/14 14:57:50;;;;;;;6.22;5.82;;;;;;;7.68;100.00;98927.00;10538843;28;20113;-73
2023/04/14 15:02:53;;;;;;;6.72;6.10;;;;;;;7.85;100.00;98927.22;10512747;28;20048;-73
2023/04/14 15:07:55;;;;;;;6.05;5.65;;;;;;;7.86;100.00;98925.44;10497433;28;20489;-73
2023/04/14 15:12:57;;;;;;;4.97;4.68;;;;;;;7.97;100.00;98924.13;10513899;28;20076;-73
2023/04/14 15:17:59;;;;;;;5.60;5.20;;;;;;;7.90;100.00;98930.50;10487877;28;20394;-73
2023/04/14 15:23:02;;;;;;;4.40;4.10;;;;;;;7.90;100.00;98937.50;10456935;28;20064;-73
2023/04/14 15:28:04;;;;;;;5.03;4.63;;;;;;;7.88;100.00;98937.56;10456440;28;20055;-73
2023/04/14 15:33:06;;;;;;;5.38;5.03;;;;;;;7.84;100.00;98930.75;10458088;28;20037;-72
2023/04/14 15:38:08;;;;;;;5.50;5.10;;;;;;;7.85;100.00;98937.69;10491185;28;20057;-73
2023/04/14 15:43:10;;;;;;;6.57;6.07;;;;;;;7.90;100.00;98942.72;10496770;28;20055;-74
2023/04/14 15:48:12;;;;;;;6.38;5.97;;;;;;;7.88;100.00;98939.31;10528290;28;20048;-74
2023/04/14 15:53:14;;;;;;;7.82;7.32;;;;;;;7.86;100.00;98939.38;10534041;28;20389;-73
2023/04/14 15:58:16;;;;;;;6.13;5.70;;;;;;;7.84;100.00;98942.06;10523965;28;20126;-73
2023/04/14 16:03:18;;;;;;;5.70;5.30;;;;;;;7.77;100.00;98952.81;10503814;28;20051;-73
2023/04/14 16:08:21;;;;;;;5.47;5.18;;;;;;;7.70;100.00;98944.34;10491517;28;20113;-74
2023/04/14 16:13:23;;;;;;;5.10;4.80;;;;;;;7.82;100.00;98943.00;10495860;28;20048;-73
2023/04/14 16:18:24;;;;;;;6.32;5.88;;;;;;;7.86;100.00;98947.22;10494372;28;20108;-74
2023/04/14 16:23:26;;;;;;;7.45;6.95;;;;;;;7.81;100.00;98941.31;10495208;28;20494;-74
2023/04/14 16:28:28;;;;;;;7.57;7.07;;;;;;;7.70;100.00;98939.13;10476936;28;20052;-73
2023/04/14 16:33:31;;;;;;;7.70;7.20;;;;;;;7.78;100.00;98944.03;10494434;28;20094;-74
2023/04/14 16:38:33;;;;;;;8.63;8.02;;;;;;;7.81;100.00;98936.94;10482070;28;20036;-73
2023/04/14 16:43:35;;;;;;;7.55;7.05;;;;;;;7.65;100.00;98937.56;10529314;28;20070;-72
2023/04/14 16:48:37;;;;;;;7.00;6.50;;;;;;;7.59;100.00;98942.13;10534602;28;20119;-74
2023/04/14 16:53:39;;;;;;;8.93;8.38;;;;;;;7.46;100.00;98940.00;10495057;28;20041;-74
2023/04/14 16:58:40;;;;;;;11.88;11.05;;;;;;;7.52;100.00;98940.63;10494128;28;20473;-76
2023/04/14 17:03:42;;;;;;;7.43;7.03;;;;;;;7.44;100.00;98942.69;10493576;28;20052;-76
2023/04/14 17:08:45;;;;;;;7.75;7.25;;;;;;;7.23;100.00;98933.84;10487748;28;20187;-77
2023/04/14 17:13:49;;;;;;;8.02;7.53;;;;;;;7.18;100.00;98930.56;10452856;28;20033;-75
2023/04/14 17:18:52;;;;;;;9.18;8.65;;;;;;;7.19;100.00;98932.25;10451834;28;20479;-76
2023/04/14 17:23:54;;;;;;;8.77;8.18;;;;;;;7.24;100.00;98927.72;10450606;28;20634;-76
2023/04/14 17:28:56;;;;;;;8.40;7.80;;;;;;;7.11;100.00;98933.44;10451540;28;20048;-75
2023/04/14 17:33:58;;;;;;;9.57;8.98;;;;;;;7.01;100.00;98936.38;10450975;28;20037;-76
2023/04/14 17:39:01;;;;;;;8.88;8.35;;;;;;;6.93;100.00;98937.53;10451159;28;20037;-75
2023/04/14 17:44:03;;;;;;;8.90;8.40;;;;;;;7.05;100.00;98943.19;10450422;28;20052;-75
2023/04/14 17:49:06;;;;;;;8.48;8.00;;;;;;;7.05;100.00;98940.59;10453911;28;20037;-76
2023/04/14 17:54:08;;;;;;;9.32;8.73;;;;;;;6.95;100.00;98944.44;10459274;28;20049;-76
2023/04/14 17:59:11;;;;;;;8.15;7.65;;;;;;;7.02;100.00;98932.84;10425400;28;20490;-75
2023/04/14 18:04:16;;;;;;;8.05;7.55;;;;;;;7.04;100.00;98940.66;10427747;28;20051;-76
2023/04/14 18:09:21;;;;;;;9.10;8.50;;;;;;;6.94;100.00;98931.41;10463450;28;20045;-76
2023/04/14 18:14:23;;;;;;;8.63;8.13;;;;;;;6.90;100.00;98940.25;10460722;28;20096;-76
2023/04/14 18:19:25;;;;;;;9.93;9.32;;;;;;;6.93;100.00;98946.22;10444531;28;20049;-75
2023/04/14 18:24:27;;;;;;;9.32;8.77;;;;;;;6.77;100.00;98942.41;10443584;28;20115;-75
2023/04/14 18:29:32;;;;;;;8.55;8.05;;;;;;;6.82;100.00;98938.78;10458363;28;20045;-74
2023/04/14 18:34:34;;;;;;;10.02;9.43;;;;;;;7.03;100.00;98942.38;10457934;28;20037;-76
2023/04/14 18:39:36;;;;;;;8.07;7.47;;;;;;;6.87;100.00;98938.63;10456582;28;20182;-76
2023/04/14 18:44:38;;;;;;;8.38;7.88;;;;;;;6.82;100.00;98938.78;10456028;28;20061;-76
2023/04/14 18:49:40;;;;;;;8.70;8.20;;;;;;;6.75;100.00;98937.25;10437479;28;20045;-76
2023/04/14 18:54:42;;;;;;;8.32;7.78;;;;;;;6.81;100.00;98937.03;10482897;28;20505;-76
2023/04/14 18:59:44;;;;;;;9.05;8.45;;;;;;;6.93;100.00;98938.38;10538793;28;20044;-75
2023/04/14 19:04:45;;;;;;;7.38;6.97;;;;;;;6.85;100.00;98939.56;10537517;28;20104;-77
2023/04/14 19:09:47;;;;;;;8.30;7.70;;;;;;;6.75;100.00;98942.47;10538639;28;20382;-76
2023/04/14 19:14:49;;;;;;;9.68;8.98;;;;;;;6.75;100.00;98934.66;10536911;28;20084;-76
2023/04/14 19:19:51;;;;;;;9.32;8.77;;;;;;;6.79;100.00;98930.19;10519667;28;20044;-76
2023/04/14 19:24:53;;;;;;;8.65;8.13;;;;;;;6.78;100.00;98923.25;10538276;28;20069;-76
2023/04/14 19:29:56;;;;;;;9.10;8.50;;;;;;;6.94;100.00;98924.41;10520516;28;20062;-75
2023/04/14 19:34:58;;;;;;;8.85;8.35;;;;;;;6.86;100.00;98913.38;10538187;28;20404;-76
2023/04/14 19:40:02;;;;;;;9.20;8.70;;;;;;;6.91;100.00;98914.09;10538199;28;20048;-75
2023/04/14 19:45:06;;;;;;;9.63;9.02;;;;;;;6.91;100.00;98921.94;10520047;28;20101;-75
2023/04/14 19:50:08;;;;;;;8.00;7.53;;;;;;;6.79;100.00;98910.13;10537741;28;20047;-76
2023/04/14 19:55:10;;;;;;;8.15;7.65;;;;;;;6.66;100.00;98913.22;10536794;28;20384;-76
2023/04/14 20:00:12;;;;;;;8.18;7.68;;;;;;;6.59;100.00;98909.94;10519060;28;20143;-75
2023/04/14 20:05:14;;;;;;;8.20;7.70;;;;;;;6.80;100.00;98917.06;10518110;28;20413;-76
2023/04/14 20:10:16;;;;;;;7.72;7.25;;;;;;;6.68;100.00;98914.00;10536679;28;20036;-75
2023/04/14 20:15:18;;;;;;;7.72;7.32;;;;;;;6.58;100.00;98906.47;10536478;28;20135;-76
2023/04/14 20:20:20;;;;;;;7.72;7.13;;;;;;;6.61;100.00;98905.53;10536482;28;20051;-75
2023/04/14 20:25:22;;;;;;;7.72;7.22;;;;;;;6.69;100.00;98907.91;10501029;28;20160;-75
2023/04/14 20:30:25;;;;;;;7.75;7.25;;;;;;;6.64;100.00;98894.13;10500873;28;20055;-76
2023/04/14 20:35:26;;;;;;;7.35;6.95;;;;;;;6.72;100.00;98884.28;10536029;28;20411;-74
2023/04/14 20:40:28;;;;;;;6.78;6.30;;;;;;;6.61;100.00;98883.81;10518072;28;20064;-76
2023/04/14 20:45:31;;;;;;;6.93;6.53;;;;;;;6.63;100.00;98875.00;10500504;28;20059;-75
2023/04/14 20:50:33;;;;;;;7.03;6.63;;;;;;;6.54;100.00;98880.53;10517570;28;20056;-76
2023/04/14 20:55:35;;;;;;;7.07;6.68;;;;;;;6.48;100.00;98872.91;10516538;28;20062;-76
2023/04/14 21:00:37;;;;;;;7.13;6.72;;;;;;;6.47;100.00;98868.63;10516159;28;20062;-77
2023/04/14 21:05:39;;;;;;;6.40;6.00;;;;;;;6.55;100.00;98866.56;10533882;28;20130;-75
2023/04/14 21:10:41;;;;;;;6.00;5.57;;;;;;;6.57;100.00;98863.00;10534595;28;20047;-76
2023/04/14 21:16:03;;;;;;;6.38;5.97;;;;;;;6.47;100.00;98859.00;10535109;28;20435;-75
2023/04/14 21:21:10;;;;;;;6.13;5.72;;;;;;;6.60;100.00;98866.41;10499775;28;20048;-75
2023/04/14 21:26:12;;;;;;;5.68;5.32;;;;;;;6.57;100.00;98865.63;10533161;28;20055;-75
2023/04/14 21:31:14;;;;;;;5.32;4.97;;;;;;;6.51;100.00;98871.06;10533377;28;20040;-75
2023/04/14 21:36:17;;;;;;;4.65;4.35;;;;;;;6.60;100.00;98871.63;10533383;28;20412;-75
2023/04/14 21:41:19;;;;;;;5.32;5.03;;;;;;;6.69;100.00;98860.91;10533209;28;20036;-76
2023/04/14 21:46:21;;;;;;;4.05;3.85;;;;;;;6.58;100.00;98851.66;10515071;28;20036;-76
2023/04/14 21:51:23;;;;;;;4.93;4.63;;;;;;;6.65;100.00;98857.53;10533282;28;20534;-75
2023/04/14 21:56:25;;;;;;;4.90;4.60;;;;;;;6.54;100.00;98860.50;10532658;28;20041;-75
2023/04/14 22:01:27;;;;;;;4.78;4.47;;;;;;;6.41;100.00;98860.97;10532979;28;20105;-76
2023/04/14 22:06:29;;;;;;;4.55;4.25;;;;;;;6.57;100.00;98856.94;10532602;28;20032;-76
2023/04/14 22:11:31;;;;;;;3.95;3.65;;;;;;;6.72;100.00;98851.16;10532576;28;20119;-76
2023/04/14 22:16:34;;;;;;;3.88;3.58;;;;;;;6.61;100.00;98849.84;10532403;28;20427;-76
2023/04/14 22:21:35;;;;;;;4.13;3.83;;;;;;;6.70;100.00;98849.53;10532254;28;20040;-75
2023/04/14 22:26:37;;;;;;;2.88;2.67;;;;;;;6.57;100.00;98846.50;10532060;28;20490;-76
2023/04/14 22:31:39;;;;;;;3.42;3.22;;;;;;;6.62;100.00;98846.34;10531849;28;20086;-76
2023/04/14 22:36:40;;;;;;;4.13;3.60;;;;;;;6.64;100.00;98839.28;10536215;28;20157;-75
2023/04/14 22:41:44;;;;;;;3.30;2.95;;;;;;;6.78;100.00;98835.31;10539024;28;20083;-74
2023/04/14 22:46:46;;;;;;;4.63;3.85;;;;;;;6.60;100.00;98829.84;10538797;28;20044;-75
2023/04/14 22:51:47;;;;;;;4.53;4.07;;;;;;;6.49;100.00;98831.09;10538764;28;20089;-75
2023/04/14 22:56:49;;;;;;;4.28;3.90;;;;;;;6.52;100.00;98822.31;10538957;28;20382;-72
2023/04/14 23:01:51;;;;;;;6.03;5.47;;;;;;;6.52;100.00;98817.94;10538970;28;20117;-72
2023/04/14 23:06:53;;;;;;;4.22;3.92;;;;;;;6.64;100.00;98813.19;10520705;28;20485;-72
2023/04/14 23:12:00;;;;;;;3.67;3.38;;;;;;;6.49;100.00;98812.81;10538635;28;20434;-72
2023/04/14 23:17:02;;;;;;;3.10;2.30;;;;;;;6.62;100.00;98809.78;10538331;28;20401;-72
2023/04/14 23:22:04;;;;;;;3.40;3.10;;;;;;;6.55;100.00;98810.00;10537717;28;20050;-72
2023/04/14 23:27:07;;;;;;;4.40;2.28;;;;;;;6.56;100.00;98803.88;10519523;28;20051;-73
2023/04/14 23:32:08;;;;;;;3.50;3.05;;;;;;;6.68;100.00;98806.94;10537431;28;20522;-72